Time;durP1;ratioP1;P1;durP2;ratioP2;P2;SDS_P1;SDS_P2;PMS_P1;PMS_P2;Temp;Humidity;BMP_temperature;BMP_pressure;BME280_temperature;BME280_humidity;BME280_pressure;Samples;Min_cycle;Max_cycle;Signal;HPM_P1;HPM_P2
2022/08/03 00:01:39;;;;;;;9.50;4.70;;;18.30;99.90;;;;;;5028308;28;20041;-77
2022/08/03 00:04:05;;;;;;;8.02;3.65;;;18.30;99.90;;;;;;5026284;28;20119;-79
2022/08/03 00:06:31;;;;;;;7.53;4.05;;;18.40;99.90;;;;;;5023894;28;20033;-76
2022/08/03 00:08:57;;;;;;;12.00;3.90;;;18.40;99.90;;;;;;5025469;28;20034;-74
2022/08/03 00:11:23;;;;;;;8.57;3.92;;;18.20;99.90;;;;;;5023773;28;20122;-79
2022/08/03 00:13:49;;;;;;;5.53;3.70;;;18.10;99.90;;;;;;5023295;28;20477;-76
2022/08/03 00:16:15;;;;;;;6.80;4.22;;;18.00;99.90;;;;;;5022612;28;20408;-76
2022/08/03 00:18:41;;;;;;;8.52;4.57;;;17.90;99.90;;;;;;5018490;28;20057;-76
2022/08/03 00:21:06;;;;;;;6.95;4.50;;;17.80;99.90;;;;;;5024402;28;20033;-75
2022/08/03 00:23:33;;;;;;;6.57;3.92;;;17.70;99.90;;;;;;5021768;28;20037;-78
2022/08/03 00:25:59;;;;;;;10.02;3.95;;;17.60;99.90;;;;;;5023038;28;20033;-75
2022/08/03 00:28:25;;;;;;;6.32;3.75;;;17.60;99.90;;;;;;5025013;28;20029;-78
2022/08/03 00:30:50;;;;;;;7.40;3.63;;;17.60;99.90;;;;;;5024568;28;20029;-77
2022/08/03 00:33:16;;;;;;;6.97;4.15;;;17.50;99.90;;;;;;5021120;28;20039;-77
2022/08/03 00:35:42;;;;;;;5.63;3.72;;;17.50;99.90;;;;;;5023654;28;20039;-77
2022/08/03 00:38:08;;;;;;;6.63;3.88;;;17.60;99.90;;;;;;5019252;28;20033;-76
2022/08/03 00:40:33;;;;;;;12.50;4.00;;;17.50;99.90;;;;;;5022210;28;20038;-77
2022/08/03 00:43:02;;;;;;;7.18;3.95;;;17.50;99.90;;;;;;5023326;28;20464;-74
2022/08/03 00:45:40;;;;;;;8.05;4.20;;;17.50;99.90;;;;;;5019437;28;20037;-77
2022/08/03 00:48:08;;;;;;;7.05;4.30;;;17.50;99.90;;;;;;5022458;28;20044;-78
2022/08/03 00:50:35;;;;;;;13.10;5.80;;;17.40;99.90;;;;;;5009532;28;20026;-77
2022/08/03 00:53:03;;;;;;;8.00;4.70;;;17.20;99.90;;;;;;5018257;28;20029;-74
2022/08/03 00:55:29;;;;;;;11.02;5.30;;;17.10;99.90;;;;;;5023159;28;20033;-74
2022/08/03 00:57:56;;;;;;;10.00;4.65;;;17.10;99.90;;;;;;5021662;28;20463;-76
2022/08/03 01:00:24;;;;;;;6.68;4.50;;;17.10;99.90;;;;;;5023624;28;20017;-77
2022/08/03 01:02:50;;;;;;;7.90;4.40;;;17.20;99.90;;;;;;5022247;28;20029;-79
2022/08/03 01:05:16;;;;;;;10.07;4.05;;;17.30;99.90;;;;;;5028839;28;20391;-76
2022/08/03 01:07:52;;;;;;;7.97;4.22;;;17.20;99.90;;;;;;5027871;28;20091;-78
2022/08/03 01:10:45;;;;;;;6.82;4.05;;;17.10;99.90;;;;;;5029038;28;20507;-76
2022/08/03 01:13:16;;;;;;;5.90;4.20;;;17.00;99.90;;;;;;5026561;28;20029;-74
2022/08/03 01:16:14;;;;;;;8.38;4.50;;;16.90;99.90;;;;;;5026661;28;20040;-75
2022/08/03 01:19:09;;;;;;;7.57;4.30;;;16.90;99.90;;;;;;5021757;28;20400;-76
2022/08/03 01:22:08;;;;;;;6.45;3.92;;;16.90;99.90;;;;;;5028946;28;20075;-76
2022/08/03 01:24:54;;;;;;;4.30;3.35;;;16.80;99.90;;;;;;5028981;28;20371;-75
2022/08/03 01:27:41;;;;;;;7.20;3.80;;;16.70;99.90;;;;;;5018809;28;20044;-78
2022/08/03 01:30:09;;;;;;;13.05;4.38;;;16.80;99.90;;;;;;5023717;28;20119;-75
2022/08/03 01:32:57;;;;;;;7.43;4.10;;;16.90;99.90;;;;;;5031079;28;20068;-78
2022/08/03 01:35:34;;;;;;;7.60;3.95;;;17.10;99.90;;;;;;5023570;28;20102;-79
2022/08/03 01:38:08;;;;;;;8.68;4.57;;;17.10;99.90;;;;;;5029641;28;20033;-77
2022/08/03 01:40:36;;;;;;;7.72;4.80;;;17.10;99.90;;;;;;5030428;28;20494;-78
2022/08/03 01:43:05;;;;;;;6.85;4.35;;;16.90;99.90;;;;;;5028692;28;20469;-76
2022/08/03 01:45:32;;;;;;;7.65;4.05;;;16.80;99.90;;;;;;5027788;28;20052;-79
2022/08/03 01:47:59;;;;;;;6.00;3.90;;;16.70;99.90;;;;;;5027410;28;20034;-77
2022/08/03 01:50:29;;;;;;;8.18;4.35;;;16.70;99.90;;;;;;5027116;28;20075;-77
2022/08/03 01:52:56;;;;;;;9.13;4.07;;;16.70;99.90;;;;;;5029097;28;20029;-78
2022/08/03 01:55:23;;;;;;;6.35;4.10;;;16.60;99.90;;;;;;5027234;28;20037;-75
2022/08/03 01:57:51;;;;;;;8.27;4.28;;;16.50;99.90;;;;;;5030623;28;20040;-79
2022/08/03 02:00:18;;;;;;;6.63;4.00;;;16.40;99.90;;;;;;5028047;28;20041;-78
2022/08/03 02:02:47;;;;;;;6.95;4.32;;;16.40;99.90;;;;;;5028345;28;20041;-75
2022/08/03 02:05:14;;;;;;;10.35;4.75;;;16.50;99.90;;;;;;5028553;28;20152;-78
2022/08/03 02:07:42;;;;;;;8.70;4.18;;;16.40;99.90;;;;;;5031526;28;20380;-77
2022/08/03 02:10:10;;;;;;;9.00;4.13;;;16.50;99.90;;;;;;5029378;28;20108;-75
2022/08/03 02:12:38;;;;;;;13.90;6.40;;;16.30;99.90;;;;;;5029569;28;20060;-78
2022/08/03 02:15:05;;;;;;;23.38;10.52;;;16.20;99.90;;;;;;5027914;28;20048;-77
2022/08/03 02:17:33;;;;;;;49.35;19.98;;;16.20;99.90;;;;;;5027439;28;20107;-78
2022/08/03 02:19:59;;;;;;;28.15;12.38;;;16.20;99.90;;;;;;5029105;28;20036;-76
2022/08/03 02:22:26;;;;;;;19.42;7.93;;;16.30;99.90;;;;;;5026233;28;20029;-77
2022/08/03 02:24:52;;;;;;;11.18;5.32;;;16.20;99.90;;;;;;5027890;28;20044;-77
2022/08/03 02:27:28;;;;;;;10.52;6.20;;;16.10;99.90;;;;;;5030917;28;20033;-78
2022/08/03 02:30:06;;;;;;;10.52;4.95;;;16.10;99.90;;;;;;5027916;28;20159;-77
2022/08/03 02:32:36;;;;;;;7.65;4.63;;;16.00;99.90;;;;;;5028210;28;20025;-77
2022/08/03 02:35:04;;;;;;;6.82;4.57;;;16.00;99.90;;;;;;5028941;28;20029;-77
2022/08/03 02:37:34;;;;;;;9.15;4.45;;;16.00;99.90;;;;;;5028975;28;20041;-76
2022/08/03 02:40:05;;;;;;;8.75;4.28;;;15.90;99.90;;;;;;5025993;28;20040;-77
2022/08/03 02:42:33;;;;;;;7.28;4.15;;;15.90;99.90;;;;;;5028075;28;20086;-78
2022/08/03 02:45:02;;;;;;;8.18;4.88;;;15.90;99.90;;;;;;5027268;28;20120;-77
2022/08/03 02:47:29;;;;;;;7.82;4.82;;;15.90;99.90;;;;;;5028590;28;20018;-79
2022/08/03 02:49:58;;;;;;;6.53;4.47;;;16.00;99.90;;;;;;5026526;28;20365;-78
2022/08/03 02:52:27;;;;;;;8.10;4.70;;;16.10;99.90;;;;;;5027600;28;20082;-76
2022/08/03 02:54:56;;;;;;;11.13;4.75;;;16.10;99.90;;;;;;5029131;28;20041;-75
2022/08/03 02:57:26;;;;;;;6.32;4.30;;;16.10;99.90;;;;;;5028515;28;20044;-76
2022/08/03 02:59:52;;;;;;;10.65;4.93;;;16.00;99.90;;;;;;5026988;28;20044;-76
2022/08/03 03:02:19;;;;;;;9.68;4.68;;;15.90;99.90;;;;;;5027844;28;20392;-77
2022/08/03 03:04:46;;;;;;;12.23;4.82;;;15.90;99.90;;;;;;5028179;28;20497;-78
2022/08/03 03:07:16;;;;;;;12.10;4.30;;;15.90;99.90;;;;;;5028299;28;20049;-75
2022/08/03 03:09:42;;;;;;;7.90;4.65;;;16.00;99.90;;;;;;5028819;28;20037;-78
2022/08/03 03:12:10;;;;;;;7.47;4.45;;;15.90;99.90;;;;;;5028554;28;20551;-73
2022/08/03 03:14:36;;;;;;;10.00;3.97;;;15.90;99.90;;;;;;5029260;28;20061;-78
2022/08/03 03:17:03;;;;;;;6.47;4.80;;;15.90;99.90;;;;;;5029326;28;20128;-77
2022/08/03 03:19:31;;;;;;;6.32;4.68;;;15.80;99.90;;;;;;5027284;28;20041;-79
2022/08/03 03:22:00;;;;;;;7.30;4.50;;;15.80;99.90;;;;;;5024551;28;20040;-76
2022/08/03 03:24:27;;;;;;;5.65;4.15;;;15.80;99.90;;;;;;5022595;28;20077;-78
2022/08/03 03:26:53;;;;;;;9.23;4.55;;;15.70;99.90;;;;;;5030136;28;20100;-77
2022/08/03 03:29:20;;;;;;;8.07;5.22;;;15.80;99.90;;;;;;5027685;28;20037;-76
2022/08/03 03:31:46;;;;;;;8.07;4.85;;;15.80;99.90;;;;;;5028647;28;20033;-77
2022/08/03 03:34:12;;;;;;;9.27;4.32;;;15.90;99.90;;;;;;5027671;28;20038;-76
2022/08/03 03:36:38;;;;;;;9.90;4.28;;;15.80;99.90;;;;;;5028026;28;20091;-75
2022/08/03 03:39:04;;;;;;;6.80;4.47;;;15.80;99.90;;;;;;5028927;28;20112;-74
2022/08/03 03:41:29;;;;;;;6.68;4.00;;;15.70;99.90;;;;;;5027687;28;20267;-76
2022/08/03 03:43:55;;;;;;;7.47;4.57;;;15.70;99.90;;;;;;5029850;28;20482;-75
2022/08/03 03:46:21;;;;;;;10.85;4.57;;;15.70;99.90;;;;;;5027952;28;20483;-78
2022/08/03 03:48:47;;;;;;;7.07;4.30;;;15.70;99.90;;;;;;5025453;28;20049;-75
2022/08/03 03:51:13;;;;;;;7.30;4.10;;;15.70;99.90;;;;;;5027586;28;20029;-74
2022/08/03 03:53:39;;;;;;;8.05;4.78;;;15.60;99.90;;;;;;5028457;28;20037;-77
2022/08/03 03:56:05;;;;;;;7.43;4.13;;;15.30;99.90;;;;;;5029647;28;20038;-77
2022/08/03 03:58:32;;;;;;;7.05;4.63;;;15.20;99.90;;;;;;5026674;28;20104;-75
2022/08/03 04:00:58;;;;;;;9.18;4.43;;;15.20;99.90;;;;;;5024581;28;20025;-76
2022/08/03 04:03:24;;;;;;;12.05;4.65;;;15.10;99.90;;;;;;5022235;28;20069;-78
2022/08/03 04:11:25;;;;;;;8.60;4.93;;;15.30;99.90;;;;;;5026324;28;20083;-73
2022/08/03 04:14:27;;;;;;;7.47;4.88;;;15.30;99.90;;;;;;5023697;28;20025;-74
2022/08/03 04:16:56;;;;;;;6.15;4.53;;;15.30;99.90;;;;;;5021985;28;20095;-74
2022/08/03 04:19:43;;;;;;;7.70;5.00;;;15.30;99.90;;;;;;5026587;28;20068;-74
2022/08/03 04:22:12;;;;;;;6.22;4.13;;;15.30;99.90;;;;;;5025039;28;20104;-73
2022/08/03 04:24:45;;;;;;;7.50;4.82;;;15.40;99.90;;;;;;5020405;28;20045;-73
2022/08/03 04:27:15;;;;;;;8.30;4.68;;;15.50;99.90;;;;;;5025330;28;20843;-74
2022/08/03 04:29:45;;;;;;;10.45;4.97;;;15.50;99.90;;;;;;5027631;28;20029;-75
2022/08/03 04:32:12;;;;;;;6.82;4.78;;;15.70;99.90;;;;;;5026572;28;20157;-74
2022/08/03 04:34:38;;;;;;;7.05;4.53;;;15.70;99.90;;;;;;5026747;28;20029;-75
2022/08/03 04:37:11;;;;;;;6.65;4.63;;;15.90;99.90;;;;;;5026464;28;20021;-73
2022/08/03 04:39:40;;;;;;;8.15;4.72;;;16.00;99.90;;;;;;5026502;28;20032;-72
2022/08/03 04:42:07;;;;;;;8.18;4.63;;;16.20;99.90;;;;;;5021017;28;20026;-73
2022/08/03 04:44:43;;;;;;;7.55;4.40;;;16.30;99.90;;;;;;5022369;28;20609;-72
2022/08/03 04:47:08;;;;;;;6.13;4.57;;;16.40;99.90;;;;;;5025832;28;20375;-75
2022/08/03 04:49:36;;;;;;;8.98;4.68;;;16.30;99.90;;;;;;5024568;28;20033;-74
2022/08/03 04:52:03;;;;;;;7.00;4.78;;;16.50;99.90;;;;;;5028994;28;20029;-74
2022/08/03 04:54:29;;;;;;;8.38;4.72;;;16.60;99.90;;;;;;5024690;28;20471;-74
2022/08/03 04:56:55;;;;;;;9.57;4.03;;;16.80;99.90;;;;;;5026344;28;20151;-74
2022/08/03 04:59:20;;;;;;;6.28;3.70;;;16.90;99.90;;;;;;5026771;28;20807;-74
2022/08/03 05:01:46;;;;;;;6.78;4.45;;;16.90;99.90;;;;;;5021107;28;20037;-73
2022/08/03 05:04:12;;;;;;;8.55;4.75;;;16.90;99.90;;;;;;5027032;28;20156;-73
2022/08/03 05:06:38;;;;;;;8.23;4.10;;;16.90;99.90;;;;;;5025467;28;20029;-74
2022/08/03 05:09:03;;;;;;;7.15;4.55;;;17.00;99.90;;;;;;5025010;28;20048;-73
2022/08/03 05:11:29;;;;;;;7.45;4.32;;;17.20;99.90;;;;;;5026694;28;20037;-74
2022/08/03 05:13:55;;;;;;;8.30;4.60;;;17.30;99.90;;;;;;5028738;28;20029;-72
2022/08/03 05:16:20;;;;;;;7.88;4.18;;;17.50;99.90;;;;;;5027753;28;20037;-73
2022/08/03 05:18:46;;;;;;;9.73;4.85;;;17.60;99.90;;;;;;5028472;28;20072;-73
2022/08/03 05:21:15;;;;;;;7.22;4.35;;;17.70;99.90;;;;;;5028971;28;20033;-72
2022/08/03 05:23:42;;;;;;;6.57;4.72;;;17.70;99.90;;;;;;5028227;28;20021;-74
2022/08/03 05:26:07;;;;;;;7.40;4.97;;;17.80;99.90;;;;;;5026951;28;20029;-73
2022/08/03 05:28:33;;;;;;;7.78;4.95;;;17.90;99.90;;;;;;5025960;28;20032;-73
2022/08/03 05:30:59;;;;;;;10.43;4.90;;;17.80;99.90;;;;;;5027913;28;20044;-74
2022/08/03 05:33:24;;;;;;;8.38;4.70;;;17.90;99.90;;;;;;5026658;28;20030;-74
2022/08/03 05:35:50;;;;;;;6.18;4.55;;;17.90;99.90;;;;;;5028834;28;20449;-73
2022/08/03 05:38:16;;;;;;;15.63;4.82;;;18.00;99.90;;;;;;5026982;28;20029;-73
2022/08/03 05:40:41;;;;;;;7.38;4.53;;;18.10;99.90;;;;;;5028003;28;20037;-73
2022/08/03 05:43:07;;;;;;;8.63;4.95;;;18.30;99.90;;;;;;5028603;28;20029;-73
2022/08/03 05:45:32;;;;;;;9.15;5.13;;;18.30;99.90;;;;;;5025572;28;20057;-73
2022/08/03 05:47:58;;;;;;;7.55;4.97;;;18.50;99.90;;;;;;5028357;28;20049;-73
2022/08/03 05:50:24;;;;;;;8.60;4.75;;;18.70;99.90;;;;;;5030374;28;20034;-73
2022/08/03 05:52:50;;;;;;;9.55;5.35;;;18.80;99.90;;;;;;5032262;28;20029;-73
2022/08/03 05:55:15;;;;;;;11.18;4.88;;;18.90;99.90;;;;;;5029733;28;20114;-71
2022/08/03 05:57:42;;;;;;;7.22;4.97;;;18.90;99.90;;;;;;5024973;28;20030;-74
2022/08/03 06:00:10;;;;;;;7.45;4.82;;;19.00;99.90;;;;;;5028307;28;20499;-75
2022/08/03 06:02:36;;;;;;;7.30;5.10;;;19.10;99.90;;;;;;5025141;28;20365;-73
2022/08/03 06:05:02;;;;;;;7.85;5.20;;;19.30;99.90;;;;;;5028529;28;20037;-72
2022/08/03 06:07:27;;;;;;;8.95;5.63;;;19.30;99.90;;;;;;5028248;28;20490;-73
2022/08/03 06:09:53;;;;;;;12.40;4.90;;;19.50;99.90;;;;;;5028627;28;20033;-72
2022/08/03 06:12:19;;;;;;;8.35;4.75;;;19.80;99.90;;;;;;5029817;28;20495;-71
2022/08/03 06:14:45;;;;;;;8.55;5.18;;;20.00;99.90;;;;;;5027179;28;20045;-73
2022/08/03 06:17:10;;;;;;;7.43;5.18;;;20.20;99.90;;;;;;5024476;28;20033;-71
2022/08/03 06:19:36;;;;;;;8.38;5.15;;;20.40;99.90;;;;;;5026229;28;20447;-74
2022/08/03 06:22:02;;;;;;;9.95;5.30;;;20.50;99.90;;;;;;5030723;28;20057;-73
2022/08/03 06:24:27;;;;;;;10.95;5.75;;;20.60;99.90;;;;;;5027619;28;20025;-74
2022/08/03 06:26:53;;;;;;;15.10;5.32;;;20.70;99.90;;;;;;5029536;28;20112;-73
2022/08/03 06:29:19;;;;;;;11.48;4.80;;;20.80;99.90;;;;;;5026338;28;20029;-71
2022/08/03 06:31:45;;;;;;;8.38;5.05;;;21.10;99.90;;;;;;5028259;28;20044;-74
2022/08/03 06:34:10;;;;;;;16.80;5.68;;;21.30;99.90;;;;;;5027801;28;20463;-73
2022/08/03 06:36:36;;;;;;;11.30;4.70;;;21.50;99.90;;;;;;5026470;28;20037;-74
2022/08/03 06:39:02;;;;;;;12.35;5.47;;;21.70;99.90;;;;;;5026913;28;20471;-74
2022/08/03 06:41:28;;;;;;;21.05;5.90;;;22.00;99.90;;;;;;5027684;28;20132;-78
2022/08/03 06:43:54;;;;;;;11.52;6.00;;;22.20;99.90;;;;;;5030897;28;20105;-75
2022/08/03 06:46:21;;;;;;;10.38;5.10;;;22.40;99.90;;;;;;5025905;28;20494;-74
2022/08/03 06:48:47;;;;;;;15.48;5.10;;;22.60;99.90;;;;;;5026230;28;20044;-73
2022/08/03 06:51:12;;;;;;;5.55;4.32;;;22.90;99.90;;;;;;5029467;28;20026;-78
2022/08/03 06:53:38;;;;;;;6.32;4.60;;;23.10;99.90;;;;;;5029599;28;20041;-75
2022/08/03 06:56:05;;;;;;;12.07;5.00;;;23.20;99.90;;;;;;5028975;28;20033;-75
2022/08/03 06:58:30;;;;;;;6.55;4.28;;;23.30;99.90;;;;;;5026956;28;20033;-75
2022/08/03 07:00:56;;;;;;;9.60;4.57;;;23.50;99.90;;;;;;5029216;28;20399;-74
2022/08/03 07:03:22;;;;;;;7.40;4.97;;;23.70;99.90;;;;;;5026779;28;20034;-73
2022/08/03 07:05:49;;;;;;;7.00;4.68;;;23.80;99.90;;;;;;5028318;28;20084;-75
2022/08/03 07:08:15;;;;;;;5.82;4.47;;;23.90;99.90;;;;;;5025659;28;20101;-77
2022/08/03 07:10:41;;;;;;;7.82;4.28;;;24.10;99.90;;;;;;5028114;28;20140;-74
2022/08/03 07:13:06;;;;;;;6.53;4.03;;;24.30;99.90;;;;;;5025473;28;20041;-74
2022/08/03 07:15:33;;;;;;;9.07;3.97;;;24.50;99.90;;;;;;5026191;28;20044;-73
2022/08/03 07:17:59;;;;;;;9.68;4.28;;;24.70;99.90;;;;;;5029024;28;20060;-74
2022/08/03 07:20:24;;;;;;;8.20;4.20;;;24.90;99.90;;;;;;5028195;28;20396;-70
2022/08/03 07:22:50;;;;;;;20.40;5.03;;;25.10;99.90;;;;;;5029398;28;20380;-74
2022/08/03 07:25:16;;;;;;;24.80;5.25;;;25.30;99.90;;;;;;5021720;28;20112;-74
2022/08/03 07:27:46;;;;;;;6.18;4.30;;;25.50;99.90;;;;;;5029529;28;20043;-75
2022/08/03 07:30:12;;;;;;;;;;;25.60;99.90;;;;;;5029629;28;20319;-76
2022/08/03 07:32:38;;;;;;;5.15;3.28;;;25.90;99.90;;;;;;5029564;28;20707;-75
2022/08/03 07:35:05;;;;;;;6.93;4.03;;;26.10;99.90;;;;;;5027550;28;20160;-74
2022/08/03 07:37:31;;;;;;;4.97;3.30;;;26.30;98.80;;;;;;5028609;28;20736;-76
2022/08/03 07:39:58;;;;;;;8.70;3.60;;;26.50;97.30;;;;;;5028618;28;20056;-76
2022/08/03 07:42:25;;;;;;;5.03;2.92;;;26.60;96.80;;;;;;5029169;28;20504;-71
2022/08/03 07:44:51;;;;;;;5.18;3.35;;;26.80;96.00;;;;;;5027722;28;20037;-76
2022/08/03 07:47:23;;;;;;;5.38;2.67;;;26.80;94.80;;;;;;5028396;28;20041;-74
2022/08/03 07:49:49;;;;;;;6.40;2.80;;;26.80;94.30;;;;;;5023579;28;20034;-73
2022/08/03 07:54:58;;;;;;;8.95;3.00;;;26.90;92.10;;;;;;5023931;28;20032;-74
2022/08/03 07:57:24;;;;;;;5.32;3.10;;;26.90;92.20;;;;;;5023997;28;20450;-73
2022/08/03 07:59:50;;;;;;;5.13;3.35;;;26.90;91.10;;;;;;5028408;28;20365;-75
2022/08/03 08:02:15;;;;;;;4.63;2.88;;;27.10;91.80;;;;;;5027950;28;20033;-74
2022/08/03 08:04:41;;;;;;;3.08;2.60;;;27.30;90.00;;;;;;5028448;28;20116;-75
2022/08/03 08:07:07;;;;;;;6.85;3.08;;;27.30;88.10;;;;;;5026659;28;20058;-73
2022/08/03 08:09:33;;;;;;;4.07;2.80;;;27.50;88.20;;;;;;5022465;28;20108;-74
2022/08/03 08:11:58;;;;;;;6.03;2.53;;;27.50;86.10;;;;;;5027600;28;20083;-73
2022/08/03 08:14:24;;;;;;;9.90;2.55;;;27.60;88.00;;;;;;5026664;28;20040;-73
2022/08/03 08:16:50;;;;;;;3.67;2.67;;;27.90;86.90;;;;;;5023658;28;20116;-74
2022/08/03 08:19:16;;;;;;;8.05;3.03;;;28.10;88.10;;;;;;5027097;28;20049;-74
2022/08/03 08:21:42;;;;;;;7.45;2.80;;;28.10;85.80;;;;;;5027028;28;20142;-74
2022/08/03 08:24:08;;;;;;;3.17;2.63;;;28.10;84.10;;;;;;5025723;28;20132;-73
2022/08/03 08:26:34;;;;;;;2.55;2.30;;;28.20;82.90;;;;;;5026121;28;20021;-74
2022/08/03 08:29:00;;;;;;;2.78;1.75;;;28.40;78.80;;;;;;5024904;28;20073;-77
2022/08/03 08:31:25;;;;;;;4.50;1.83;;;28.60;73.90;;;;;;5023424;28;20395;-75
2022/08/03 08:33:51;;;;;;;3.22;2.00;;;28.70;75.20;;;;;;5026719;28;20033;-74
2022/08/03 08:36:17;;;;;;;2.95;2.13;;;28.80;74.70;;;;;;5019659;28;20183;-73
2022/08/03 08:38:43;;;;;;;4.65;1.80;;;29.00;72.60;;;;;;5024938;28;20033;-73
2022/08/03 08:41:10;;;;;;;4.10;1.85;;;29.00;72.20;;;;;;5027445;28;20033;-74
2022/08/03 08:43:36;;;;;;;5.47;1.80;;;29.10;73.50;;;;;;5027040;28;20559;-74
2022/08/03 08:46:02;;;;;;;6.45;2.15;;;29.10;72.30;;;;;;5026380;28;20053;-73
2022/08/03 08:48:29;;;;;;;2.53;2.05;;;29.40;71.00;;;;;;5028921;28;20040;-71
2022/08/03 08:50:55;;;;;;;3.70;1.90;;;29.50;69.90;;;;;;5025880;28;20033;-74
2022/08/03 08:53:27;;;;;;;3.95;2.10;;;29.60;69.50;;;;;;5027050;28;20619;-73
2022/08/03 08:55:58;;;;;;;4.20;2.00;;;29.70;66.30;;;;;;5024659;28;20550;-73
2022/08/03 08:58:27;;;;;;;1.80;1.40;;;29.50;69.60;;;;;;5028188;28;20091;-73
2022/08/03 09:00:53;;;;;;;5.25;1.70;;;29.70;68.30;;;;;;5026855;28;20048;-73
2022/08/03 09:03:19;;;;;;;3.58;2.00;;;29.80;65.10;;;;;;5023175;28;20400;-72
2022/08/03 09:05:45;;;;;;;2.30;1.83;;;29.80;64.50;;;;;;5025128;28;20104;-72
2022/08/03 09:08:11;;;;;;;3.38;1.70;;;29.70;64.20;;;;;;5028952;28;20033;-72
2022/08/03 09:10:37;;;;;;;3.50;1.63;;;29.80;63.40;;;;;;5023317;28;20395;-73
2022/08/03 09:13:03;;;;;;;2.45;1.95;;;29.90;65.10;;;;;;5026867;28;20033;-71
2022/08/03 09:15:31;;;;;;;3.03;2.10;;;30.00;64.30;;;;;;5025319;28;20041;-70
2022/08/03 09:17:59;;;;;;;3.40;2.40;;;30.10;63.60;;;;;;5027544;28;20407;-72
2022/08/03 09:20:31;;;;;;;3.80;1.80;;;30.00;62.80;;;;;;5026957;28;20025;-72
2022/08/03 09:23:03;;;;;;;4.40;2.13;;;30.20;64.10;;;;;;5025908;28;20026;-71
2022/08/03 09:25:39;;;;;;;6.45;2.30;;;30.30;61.90;;;;;;5029811;28;20029;-73
2022/08/03 09:28:11;;;;;;;5.40;2.10;;;30.60;62.60;;;;;;5029653;28;20034;-74
2022/08/03 09:30:40;;;;;;;5.07;2.05;;;30.70;59.90;;;;;;5027044;28;20025;-72
2022/08/03 09:33:12;;;;;;;3.40;2.00;;;30.70;60.30;;;;;;5025758;28;20030;-74
2022/08/03 09:35:46;;;;;;;3.55;2.20;;;30.80;59.30;;;;;;5019524;28;20030;-74
2022/08/03 09:38:24;;;;;;;2.72;2.08;;;30.80;58.40;;;;;;5030823;28;20033;-71
2022/08/03 09:40:51;;;;;;;2.10;1.90;;;31.10;60.30;;;;;;5026964;28;20033;-72
2022/08/03 09:43:17;;;;;;;2.08;1.73;;;31.20;56.50;;;;;;5028799;28;20086;-73
2022/08/03 09:45:43;;;;;;;5.35;1.90;;;31.10;56.40;;;;;;5028978;28;20543;-71
2022/08/03 09:48:22;;;;;;;2.55;1.73;;;31.00;57.10;;;;;;5029259;28;20030;-72
2022/08/03 09:50:56;;;;;;;4.75;2.00;;;31.20;58.70;;;;;;5024422;28;20030;-73
2022/08/03 09:53:22;;;;;;;2.80;1.75;;;31.20;57.10;;;;;;5032337;28;20041;-71
2022/08/03 09:55:59;;;;;;;3.58;1.70;;;31.50;55.40;;;;;;5031226;28;20034;-73
2022/08/03 09:58:27;;;;;;;2.53;1.90;;;31.50;55.80;;;;;;5031274;28;20127;-72
2022/08/03 10:00:53;;;;;;;2.28;1.88;;;31.60;52.60;;;;;;5028888;28;20080;-72
2022/08/03 10:03:19;;;;;;;3.00;1.83;;;31.70;54.70;;;;;;5029169;28;20029;-72
2022/08/03 10:05:45;;;;;;;4.68;1.90;;;31.90;54.90;;;;;;5026153;28;20573;-73
2022/08/03 10:08:15;;;;;;;3.35;2.10;;;32.10;54.80;;;;;;5029580;28;20195;-73
2022/08/03 10:10:48;;;;;;;3.65;2.00;;;32.10;53.60;;;;;;5029618;28;20440;-71
2022/08/03 10:13:15;;;;;;;2.22;1.83;;;32.10;54.10;;;;;;5027395;28;20045;-74
2022/08/03 10:15:41;;;;;;;4.55;1.88;;;32.20;53.20;;;;;;5028490;28;20041;-71
2022/08/03 10:18:07;;;;;;;2.65;1.70;;;32.20;52.00;;;;;;5025494;28;20066;-71
2022/08/03 10:20:49;;;;;;;2.88;2.00;;;32.10;51.70;;;;;;5029625;28;20057;-71
2022/08/03 10:23:17;;;;;;;2.97;2.03;;;32.10;52.70;;;;;;5028437;28;20033;-72
2022/08/03 10:25:46;;;;;;;2.80;2.03;;;31.90;51.70;;;;;;5026682;28;20025;-73
2022/08/03 10:28:17;;;;;;;3.20;1.70;;;31.90;53.40;;;;;;5028644;28;20120;-72
2022/08/03 10:30:47;;;;;;;3.08;2.05;;;32.30;54.00;;;;;;5026482;28;20671;-72
2022/08/03 10:33:26;;;;;;;6.30;1.90;;;32.30;52.10;;;;;;5030734;28;20034;-72
2022/08/03 10:35:55;;;;;;;2.63;2.05;;;32.00;50.90;;;;;;5029327;28;20037;-74
2022/08/03 10:38:36;;;;;;;10.65;2.00;;;31.70;51.40;;;;;;5028820;28;20025;-73
2022/08/03 10:41:03;;;;;;;4.70;2.30;;;31.90;52.80;;;;;;5020196;28;20091;-71
2022/08/03 10:43:39;;;;;;;2.28;1.85;;;32.10;52.90;;;;;;5028801;28;20033;-73
2022/08/03 10:46:07;;;;;;;6.25;2.08;;;31.90;51.20;;;;;;5029402;28;20121;-74
2022/08/03 10:48:34;;;;;;;2.30;2.10;;;31.90;52.10;;;;;;5030064;28;20041;-71
2022/08/03 10:51:00;;;;;;;2.30;1.95;;;31.60;52.30;;;;;;5030329;28;20026;-72
2022/08/03 10:53:44;;;;;;;2.70;2.13;;;31.50;54.40;;;;;;5030817;28;20276;-73
2022/08/03 10:59:17;;;;;;;6.22;1.90;;;32.00;52.60;;;;;;5029021;28;20040;-73
2022/08/03 11:01:55;;;;;;;2.65;2.10;;;32.30;51.80;;;;;;5030337;28;20022;-74
2022/08/03 11:04:23;;;;;;;3.42;2.00;;;32.30;52.30;;;;;;5030352;28;20025;-73
2022/08/03 11:07:14;;;;;;;2.97;2.00;;;32.00;50.50;;;;;;5025877;28;20475;-72
2022/08/03 11:09:41;;;;;;;2.05;1.85;;;32.20;53.80;;;;;;5026856;28;20036;-72
2022/08/03 11:12:28;;;;;;;2.25;1.90;;;32.50;51.10;;;;;;5029798;28;20468;-73
2022/08/03 11:14:55;;;;;;;4.18;1.75;;;32.20;50.30;;;;;;5023986;28;20069;-74
2022/08/03 11:17:22;;;;;;;5.85;1.90;;;32.40;49.70;;;;;;5028074;28;20043;-73
2022/08/03 11:19:50;;;;;;;2.53;1.90;;;32.70;51.10;;;;;;5028299;28;20037;-73
2022/08/03 11:22:17;;;;;;;2.13;1.90;;;32.70;49.80;;;;;;5028898;28;20032;-73
2022/08/03 11:24:42;;;;;;;3.67;2.05;;;32.60;50.50;;;;;;5025611;28;20037;-72
2022/08/03 11:27:17;;;;;;;3.42;2.30;;;32.20;50.90;;;;;;5028679;28;20031;-72
2022/08/03 11:29:59;;;;;;;3.95;2.03;;;32.10;49.70;;;;;;5027553;28;20610;-73
2022/08/03 11:32:41;;;;;;;2.83;2.22;;;32.30;50.70;;;;;;5027856;28;20073;-73
2022/08/03 11:35:23;;;;;;;6.63;2.08;;;32.60;49.70;;;;;;5030706;28;20411;-73
2022/08/03 11:37:58;;;;;;;3.83;1.90;;;32.90;50.30;;;;;;5027521;28;20041;-74
2022/08/03 11:40:43;;;;;;;7.43;2.00;;;32.90;50.90;;;;;;5028398;28;20021;-75
2022/08/03 11:43:21;;;;;;;2.80;2.05;;;32.90;50.40;;;;;;5025393;28;20044;-73
2022/08/03 11:46:11;;;;;;;3.05;2.00;;;32.90;50.40;;;;;;5026445;28;20108;-74
2022/08/03 11:48:45;;;;;;;2.38;2.00;;;32.60;50.60;;;;;;5028398;28;20462;-74
2022/08/03 11:51:25;;;;;;;3.40;2.40;;;32.30;49.10;;;;;;5027177;28;20032;-73
2022/08/03 11:54:03;;;;;;;2.08;1.88;;;32.50;49.80;;;;;;5021950;28;20033;-73
2022/08/03 11:56:46;;;;;;;2.92;2.00;;;32.60;47.60;;;;;;5029011;28;20029;-74
2022/08/03 11:59:12;;;;;;;3.47;1.92;;;33.00;48.80;;;;;;5030162;28;20060;-73
2022/08/03 12:01:38;;;;;;;3.90;2.05;;;33.40;50.40;;;;;;5028941;28;20683;-74
2022/08/03 12:04:05;;;;;;;2.20;1.98;;;33.50;49.70;;;;;;5028232;28;20122;-74
2022/08/03 12:06:53;;;;;;;2.45;2.15;;;33.70;48.30;;;;;;5028804;28;20493;-73
2022/08/03 12:09:17;;;;;;;9.85;1.90;;;33.50;46.60;;;;;;5028210;28;20124;-73
2022/08/03 12:11:47;;;;;;;2.83;2.10;;;33.30;46.30;;;;;;5028027;28;20461;-70
2022/08/03 12:14:15;;;;;;;;;;;32.90;46.60;;;;;;5027356;28;20040;-72
2022/08/03 12:16:47;;;;;;;2.28;2.00;;;33.00;48.50;;;;;;5028670;28;19920;-72
2022/08/03 12:19:12;;;;;;;3.72;1.92;;;33.30;47.60;;;;;;5027500;28;20064;-73
2022/08/03 12:21:49;;;;;;;3.40;1.85;;;33.60;47.80;;;;;;5014751;28;20025;-74
2022/08/03 12:24:15;;;;;;;4.35;2.13;;;34.00;47.60;;;;;;5020618;28;20037;-74
2022/08/03 12:26:47;;;;;;;1.90;1.70;;;33.90;46.00;;;;;;5026006;28;20040;-70
2022/08/03 12:29:20;;;;;;;5.90;1.83;;;33.70;46.10;;;;;;5009828;28;20037;-71
2022/08/03 12:31:46;;;;;;;4.28;1.80;;;33.40;47.20;;;;;;5021915;28;20395;-71
2022/08/03 12:34:12;;;;;;;2.10;1.75;;;33.40;48.50;;;;;;5027674;28;20041;-72
2022/08/03 12:36:53;;;;;;;3.65;2.40;;;33.70;48.00;;;;;;5027153;28;20036;-74
2022/08/03 12:39:23;;;;;;;4.50;2.28;;;33.90;46.40;;;;;;5011247;28;20041;-72
2022/08/03 12:41:53;;;;;;;2.10;1.90;;;33.70;45.40;;;;;;5025326;28;20395;-73
2022/08/03 12:44:30;;;;;;;2.65;2.00;;;33.80;47.00;;;;;;5024467;28;20238;-73
2022/08/03 12:47:00;;;;;;;3.45;1.70;;;34.00;45.60;;;;;;5024549;28;20034;-73
2022/08/03 12:49:26;;;;;;;8.43;1.95;;;34.20;47.20;;;;;;5027656;28;20083;-72
2022/08/03 12:51:52;;;;;;;2.80;1.85;;;34.40;43.90;;;;;;5027531;28;20387;-73
2022/08/03 12:54:19;;;;;;;5.60;2.00;;;34.40;45.10;;;;;;5026273;28;20038;-73
2022/08/03 12:57:03;;;;;;;2.20;1.77;;;34.50;44.10;;;;;;5026785;28;20028;-72
2022/08/03 12:59:30;;;;;;;2.08;1.65;;;34.30;44.20;;;;;;5020198;28;20072;-71
2022/08/03 13:01:56;;;;;;;3.85;2.10;;;34.30;45.90;;;;;;5023932;28;20124;-73
2022/08/03 13:04:30;;;;;;;3.83;2.13;;;34.40;44.70;;;;;;5027905;28;20033;-74
2022/08/03 13:06:58;;;;;;;10.63;2.05;;;34.20;45.20;;;;;;5026364;28;20028;-73